Messwerte Tabas

Temperatur

Temperatur
°C
1594369800 13.00 13.00 39
1594373400 14.00 14.00 39
1594377000 15.00 15.00 40
1594380600 16.00 16.00
1594384200 17.00 17.00 40
1594387800 18.00 18.00 40
1594391400 19.00 19.00 40
1594395000 20.00 20.00 39
1594398600 21.00 21.00 38
1594402200 22.00 22.00 37
1594405800 23.00 23.00 36
1594409400 0.00 0.00 34
1594413000 1.00 1.00 33
1594416600 2.00 2.00 33
1594420200 3.00 3.00 31
1594423800 4.00 4.00 32
1594427400 5.00 5.00 33
1594431000 6.00 6.00 32
1594434600 7.00 7.00 33
1594438200 8.00 8.00 33
1594441800 9.00 9.00 35
1594445400 10.00 10.00 36
1594449000 11.00 11.00 37
1594452600 12.00 12.00

Wir danken unserem Partner:

Aktuellste Messwerte

Temperatur
39 °C
Feuchtigkeit
15 %
Wind
15 km/hWindrichtung: Nord
Luftdruck
1007 hPa
Messzeit: 11. Juli 2020, 12.30Datenquelle: METAR

Weitere Messstationen in der Nähe

Messstation Temperatur Entfernung
Birjand 31 °C 227 km
Kashmar 33 °C 228 km
Yazd 37 °C 311 km
Kerman 32 °C 372 km
Mashhad 31 °C 386 km
Bojnourd 27 °C 432 km
Gorgan 32 °C 434 km

Wind

Windrichtung Böen Mittelwind
° km/h km/h
1594369800 13.00 12.00 - 13.00 340° 10
1594373400 14.00 13.00 - 14.00 10° 10
1594377000 15.00 14.00 - 15.00 20° 10
1594380600 16.00 15.00 - 16.00
1594384200 17.00 16.00 - 17.00 10° 15
1594387800 18.00 17.00 - 18.00 30° 15
1594391400 19.00 18.00 - 19.00 30° 10
1594395000 20.00 19.00 - 20.00 50° 10
1594398600 21.00 20.00 - 21.00 10° 5
1594402200 22.00 21.00 - 22.00 10° 10
1594405800 23.00 22.00 - 23.00 20° 5
1594409400 0.00 23.00 - 0.00 40° 5
1594413000 1.00 0.00 - 1.00 60° 5
1594416600 2.00 1.00 - 2.00 60° 5
1594420200 3.00 2.00 - 3.00 80° 5
1594423800 4.00 3.00 - 4.00 70° 10
1594427400 5.00 4.00 - 5.00 170° 5
1594431000 6.00 5.00 - 6.00 290° 5
1594434600 7.00 6.00 - 7.00 290° 5
1594438200 8.00 7.00 - 8.00 60° 5
1594441800 9.00 8.00 - 9.00 110° 5
1594445400 10.00 9.00 - 10.00 260° 5
1594449000 11.00 10.00 - 11.00 290° 5
1594452600 12.00 11.00 - 12.00

Ihre Wetterstation

Fehlt Ihre Wetterstation auf unserem Portal?

Schreiben Sie an network@meteonews.ch

Klima

Wann ist es am wärmsten? Wann regnet es am wenigsten? Unsere Klimadaten geben Auskunft.